Flight Number: EUR1100 Duration: 2:45
Departure: Bucharest Otopeni (LROP) at 18:15 Distance: 1126 Nm
Arrival: Gatwick Airport (EGKK) at 21:00 Equipment: MD-81

Weather Information
Bucuresti Otopeni, Romania (LROP) 44-33N 026-06E 95M Nov 19, 2017 - 10:30 PM EST / 2017.11.20 0330 UTC
Wind: from the N (360 degrees) at 8 MPH (7 KT) (direction variable):0
Visibility: 4 mile(s):0
Sky conditions: overcast Weather: light rain Temperature: 41 F (5 C) Dew Point: 39 F (4 C) Relative Humidity: 93% Pressure (altimeter): 29.88 in. Hg (1012 hPa)
ob: LROP 200330Z 36007KT 340V040 8000 -RA FEW019 OVC028 05/04 Q1012 R88/29//95 NOSIG cycle: 3
Sunrise: 05:23 Sunset: 14:39 (UTC)

London / Gatwick Airport, United Kingdom (EGKK) 51-09N 000-11W 0M Nov 19, 2017 - 10:50 PM EST / 2017.11.20 0350 UTC
Wind: Variable at 2 MPH (2 KT):0
Visibility: greater than 7 mile(s):0
Sky conditions: mostly cloudy Temperature: 41 F (5 C) Dew Point: 39 F (4 C) Relative Humidity: 93% Pressure (altimeter): 30.09 in. Hg (1019 hPa)
ob: EGKK 200350Z VRB02KT 9999 BKN013 05/04 Q1019 cycle: 4
Sunrise: 07:31 Sunset: 16:01 (UTC)

TAF:2017/11/20 03:31 TAF AMD EGKK 200311Z 2003/2106 VRB03KT 9999 BKN025 TEMPO 2003/2014 BKN013 PROB30 TEMPO 2003/2006 7000 -RADZ BKN008 BECMG 2006/2009 24010KT BECMG 2014/2017 BKN012 TEMPO 2014/2103 8000 -RA PROB40 TEMPO 2021/2103 4000 RADZ BKN006 BECMG 2103/2106 BKN025

Previous Pireps for this route
Date Aircraft Flight time Fuel used Landing rate On time
2012-07-16MD-813.05220000Yes
2012-12-07MD-8103.1719566-206Yes
2015-09-01MD-812.5623701-297Yes
(pireps marked green are flown by you)

Route map